sensor_id;sensor_type;location;lat;lon;timestamp;pressure;altitude;pressure_sealevel;temperature;humidity
25650;BME280;13505;45.196;5.696;2023-05-21T06:03:55;98782.97;;;14.42;100.00
25650;BME280;13505;45.196;5.696;2023-05-21T06:08:46;98784.69;;;14.56;100.00
25650;BME280;13505;45.196;5.696;2023-05-21T06:13:36;98792.13;;;14.63;100.00
25650;BME280;13505;45.196;5.696;2023-05-21T06:18:27;98798.94;;;14.68;100.00
25650;BME280;13505;45.196;5.696;2023-05-21T06:23:17;98796.91;;;14.71;100.00
25650;BME280;13505;45.196;5.696;2023-05-21T06:28:07;98797.38;;;14.78;100.00
25650;BME280;13505;45.196;5.696;2023-05-21T06:32:58;98798.84;;;14.82;100.00
25650;BME280;13505;45.196;5.696;2023-05-21T06:37:48;98801.19;;;14.87;100.00
25650;BME280;13505;45.196;5.696;2023-05-21T06:42:38;98797.34;;;14.91;100.00
25650;BME280;13505;45.196;5.696;2023-05-21T06:47:29;98814.88;;;14.81;100.00
25650;BME280;13505;45.196;5.696;2023-05-21T06:52:19;98805.41;;;15.02;98.47
25650;BME280;13505;45.196;5.696;2023-05-21T06:57:10;98811.25;;;15.20;97.38
25650;BME280;13505;45.196;5.696;2023-05-21T07:02:00;98808.66;;;15.32;96.48
25650;BME280;13505;45.196;5.696;2023-05-21T07:06:50;98811.09;;;15.35;94.21
25650;BME280;13505;45.196;5.696;2023-05-21T07:11:41;98814.56;;;15.48;90.28
25650;BME280;13505;45.196;5.696;2023-05-21T07:16:32;98827.41;;;15.55;91.78
25650;BME280;13505;45.196;5.696;2023-05-21T07:21:23;98818.16;;;15.60;91.74
25650;BME280;13505;45.196;5.696;2023-05-21T07:26:13;98820.47;;;15.65;91.69
25650;BME280;13505;45.196;5.696;2023-05-21T07:31:03;98818.88;;;15.62;91.98
25650;BME280;13505;45.196;5.696;2023-05-21T07:35:54;98821.72;;;15.72;92.26
25650;BME280;13505;45.196;5.696;2023-05-21T07:40:44;98814.16;;;15.79;92.53
25650;BME280;13505;45.196;5.696;2023-05-21T07:45:35;98816.56;;;15.82;92.97
25650;BME280;13505;45.196;5.696;2023-05-21T07:50:25;98828.09;;;15.83;91.95
25650;BME280;13505;45.196;5.696;2023-05-21T07:55:15;98818.84;;;15.75;94.61
25650;BME280;13505;45.196;5.696;2023-05-21T08:00:06;98832.88;;;15.77;94.90
25650;BME280;13505;45.196;5.696;2023-05-21T08:05:02;98822.75;;;15.83;95.88
25650;BME280;13505;45.196;5.696;2023-05-21T08:09:52;98828.28;;;15.80;95.84
25650;BME280;13505;45.196;5.696;2023-05-21T08:14:43;98828.22;;;15.68;94.84
25650;BME280;13505;45.196;5.696;2023-05-21T08:19:33;98830.31;;;15.76;94.92
25650;BME280;13505;45.196;5.696;2023-05-21T08:24:24;98837.47;;;15.75;95.01
25650;BME280;13505;45.196;5.696;2023-05-21T08:29:15;98837.22;;;15.79;93.94
25650;BME280;13505;45.196;5.696;2023-05-21T08:34:05;98833.25;;;15.84;93.75
25650;BME280;13505;45.196;5.696;2023-05-21T08:38:56;98840.41;;;15.84;93.40
25650;BME280;13505;45.196;5.696;2023-05-21T08:43:47;98831.56;;;15.96;92.93
25650;BME280;13505;45.196;5.696;2023-05-21T08:48:41;98829.88;;;15.95;92.57
25650;BME280;13505;45.196;5.696;2023-05-21T08:53:32;98842.72;;;16.13;91.84
25650;BME280;13505;45.196;5.696;2023-05-21T08:58:23;98828.66;;;16.24;90.50
25650;BME280;13505;45.196;5.696;2023-05-21T09:03:14;98825.00;;;16.25;90.31
25650;BME280;13505;45.196;5.696;2023-05-21T09:08:06;98834.97;;;16.34;89.13
25650;BME280;13505;45.196;5.696;2023-05-21T09:12:58;98841.22;;;16.22;88.77
25650;BME280;13505;45.196;5.696;2023-05-21T09:17:48;98834.03;;;16.11;88.95
25650;BME280;13505;45.196;5.696;2023-05-21T09:22:47;98834.25;;;16.08;90.26
25650;BME280;13505;45.196;5.696;2023-05-21T09:27:38;98840.63;;;16.29;90.02
25650;BME280;13505;45.196;5.696;2023-05-21T09:32:29;98842.38;;;16.42;88.77
25650;BME280;13505;45.196;5.696;2023-05-21T09:37:20;98849.78;;;16.61;88.54
25650;BME280;13505;45.196;5.696;2023-05-21T09:42:12;98844.38;;;16.74;86.95
25650;BME280;13505;45.196;5.696;2023-05-21T09:47:02;98843.91;;;16.69;86.01
25650;BME280;13505;45.196;5.696;2023-05-21T09:51:56;98836.56;;;16.84;84.72
25650;BME280;13505;45.196;5.696;2023-05-21T09:56:47;98839.59;;;16.91;84.97
25650;BME280;13505;45.196;5.696;2023-05-21T10:01:37;98837.28;;;16.97;82.93
25650;BME280;13505;45.196;5.696;2023-05-21T10:06:29;98838.19;;;17.32;83.05
25650;BME280;13505;45.196;5.696;2023-05-21T10:11:21;98835.59;;;17.53;81.14
25650;BME280;13505;45.196;5.696;2023-05-21T10:16:14;98849.16;;;17.62;80.54
25650;BME280;13505;45.196;5.696;2023-05-21T10:21:05;98852.78;;;17.72;79.65
25650;BME280;13505;45.196;5.696;2023-05-21T10:25:57;98847.06;;;17.77;77.89
25650;BME280;13505;45.196;5.696;2023-05-21T10:30:49;98853.13;;;17.79;79.66
25650;BME280;13505;45.196;5.696;2023-05-21T10:35:39;98844.38;;;17.88;79.51
25650;BME280;13505;45.196;5.696;2023-05-21T10:40:30;98844.97;;;17.92;78.64
25650;BME280;13505;45.196;5.696;2023-05-21T11:01:03;98843.47;;;17.99;80.85
25650;BME280;13505;45.196;5.696;2023-05-21T11:05:55;98846.75;;;18.03;80.74
25650;BME280;13505;45.196;5.696;2023-05-21T11:10:51;98842.47;;;18.23;80.92
25650;BME280;13505;45.196;5.696;2023-05-21T11:20:50;98839.16;;;18.52;77.41
25650;BME280;13505;45.196;5.696;2023-05-21T11:25:41;98833.50;;;18.66;76.21
25650;BME280;13505;45.196;5.696;2023-05-21T11:30:31;98832.19;;;18.82;76.45
25650;BME280;13505;45.196;5.696;2023-05-21T11:35:21;98826.44;;;18.87;75.92
25650;BME280;13505;45.196;5.696;2023-05-21T11:40:17;98817.28;;;19.01;75.12
25650;BME280;13505;45.196;5.696;2023-05-21T11:45:07;98823.56;;;19.00;75.05
25650;BME280;13505;45.196;5.696;2023-05-21T11:50:00;98818.84;;;19.03;75.71
25650;BME280;13505;45.196;5.696;2023-05-21T11:54:52;98814.19;;;19.05;74.36
25650;BME280;13505;45.196;5.696;2023-05-21T11:59:49;98813.78;;;19.10;73.62
25650;BME280;13505;45.196;5.696;2023-05-21T12:04:40;98813.28;;;19.26;73.55
25650;BME280;13505;45.196;5.696;2023-05-21T12:09:39;98797.31;;;19.46;72.23
25650;BME280;13505;45.196;5.696;2023-05-21T12:14:30;98799.31;;;19.53;69.59
25650;BME280;13505;45.196;5.696;2023-05-21T12:19:20;98800.56;;;19.59;69.69
25650;BME280;13505;45.196;5.696;2023-05-21T12:24:11;98798.22;;;19.76;68.78
25650;BME280;13505;45.196;5.696;2023-05-21T12:29:03;98786.81;;;19.84;69.28
25650;BME280;13505;45.196;5.696;2023-05-21T12:33:54;98781.19;;;19.97;69.23
25650;BME280;13505;45.196;5.696;2023-05-21T12:38:45;98777.28;;;20.01;68.61
25650;BME280;13505;45.196;5.696;2023-05-21T12:43:36;98788.69;;;20.13;68.71
25650;BME280;13505;45.196;5.696;2023-05-21T12:48:27;98787.84;;;20.12;68.83
25650;BME280;13505;45.196;5.696;2023-05-21T12:53:17;98796.97;;;20.10;69.98
25650;BME280;13505;45.196;5.696;2023-05-21T12:58:12;98789.91;;;20.38;67.45
25650;BME280;13505;45.196;5.696;2023-05-21T13:03:02;98796.22;;;20.57;65.06
25650;BME280;13505;45.196;5.696;2023-05-21T13:07:55;98790.81;;;20.76;62.95
25650;BME280;13505;45.196;5.696;2023-05-21T13:12:45;98791.34;;;20.42;61.92
25650;BME280;13505;45.196;5.696;2023-05-21T13:17:35;98789.44;;;20.62;63.75
25650;BME280;13505;45.196;5.696;2023-05-21T13:22:26;98775.84;;;20.94;62.17
25650;BME280;13505;45.196;5.696;2023-05-21T13:27:16;98775.19;;;21.19;59.35
25650;BME280;13505;45.196;5.696;2023-05-21T13:32:07;98781.94;;;21.24;60.54
25650;BME280;13505;45.196;5.696;2023-05-21T13:36:57;98774.22;;;21.39;59.50
25650;BME280;13505;45.196;5.696;2023-05-21T13:41:47;98772.31;;;21.49;58.40
25650;BME280;13505;45.196;5.696;2023-05-21T13:46:38;98769.78;;;21.47;58.42
25650;BME280;13505;45.196;5.696;2023-05-21T13:51:29;98765.19;;;21.58;58.12
25650;BME280;13505;45.196;5.696;2023-05-21T13:56:20;98773.00;;;21.79;58.09
25650;BME280;13505;45.196;5.696;2023-05-21T14:01:10;98775.91;;;21.86;55.25
25650;BME280;13505;45.196;5.696;2023-05-21T14:06:01;98774.34;;;21.65;56.20
25650;BME280;13505;45.196;5.696;2023-05-21T14:10:51;98763.28;;;21.78;56.03
25650;BME280;13505;45.196;5.696;2023-05-21T14:15:42;98760.41;;;21.80;57.22
25650;BME280;13505;45.196;5.696;2023-05-21T14:20:33;98759.13;;;21.10;57.54
25650;BME280;13505;45.196;5.696;2023-05-21T14:25:23;98753.31;;;21.42;58.83
25650;BME280;13505;45.196;5.696;2023-05-21T14:30:16;98740.63;;;21.81;57.08
25650;BME280;13505;45.196;5.696;2023-05-21T14:35:06;98741.66;;;22.24;58.06
25650;BME280;13505;45.196;5.696;2023-05-21T14:39:57;98748.44;;;22.10;55.38
25650;BME280;13505;45.196;5.696;2023-05-21T14:44:47;98754.16;;;21.61;57.65
25650;BME280;13505;45.196;5.696;2023-05-21T14:49:37;98762.03;;;21.72;58.76
25650;BME280;13505;45.196;5.696;2023-05-21T14:54:28;98759.53;;;21.61;57.77
25650;BME280;13505;45.196;5.696;2023-05-21T14:59:18;98748.50;;;21.64;59.22
25650;BME280;13505;45.196;5.696;2023-05-21T15:04:08;98747.63;;;21.92;57.75
25650;BME280;13505;45.196;5.696;2023-05-21T15:08:59;98745.09;;;21.72;58.47
25650;BME280;13505;45.196;5.696;2023-05-21T15:13:49;98749.41;;;21.55;57.88
25650;BME280;13505;45.196;5.696;2023-05-21T15:18:40;98760.38;;;21.43;57.90
25650;BME280;13505;45.196;5.696;2023-05-21T15:23:30;98757.28;;;21.38;58.18
25650;BME280;13505;45.196;5.696;2023-05-21T15:28:21;98744.88;;;21.55;58.40
25650;BME280;13505;45.196;5.696;2023-05-21T15:33:12;98760.25;;;21.35;58.33
25650;BME280;13505;45.196;5.696;2023-05-21T15:38:02;98754.03;;;21.34;58.89
25650;BME280;13505;45.196;5.696;2023-05-21T15:42:52;98757.34;;;21.28;61.36
25650;BME280;13505;45.196;5.696;2023-05-21T15:47:43;98753.66;;;21.57;60.98
25650;BME280;13505;45.196;5.696;2023-05-21T15:52:34;98763.16;;;21.52;59.52
25650;BME280;13505;45.196;5.696;2023-05-21T15:57:24;98769.56;;;21.59;60.35
25650;BME280;13505;45.196;5.696;2023-05-21T16:02:14;98762.16;;;22.07;59.31
25650;BME280;13505;45.196;5.696;2023-05-21T16:07:05;98756.13;;;21.87;58.37
25650;BME280;13505;45.196;5.696;2023-05-21T16:11:55;98751.75;;;22.04;60.87
25650;BME280;13505;45.196;5.696;2023-05-21T16:16:45;98758.19;;;22.11;59.84
25650;BME280;13505;45.196;5.696;2023-05-21T16:21:36;98747.16;;;21.96;59.25
25650;BME280;13505;45.196;5.696;2023-05-21T16:26:26;98751.44;;;21.71;59.51
25650;BME280;13505;45.196;5.696;2023-05-21T16:31:17;98751.38;;;21.81;60.05
25650;BME280;13505;45.196;5.696;2023-05-21T16:36:07;98752.97;;;21.92;60.45
25650;BME280;13505;45.196;5.696;2023-05-21T16:40:57;98746.66;;;22.19;58.74
25650;BME280;13505;45.196;5.696;2023-05-21T16:45:48;98746.59;;;22.11;59.63
25650;BME280;13505;45.196;5.696;2023-05-21T16:50:39;98740.91;;;22.14;59.32
25650;BME280;13505;45.196;5.696;2023-05-21T16:55:31;98743.09;;;22.10;58.48
25650;BME280;13505;45.196;5.696;2023-05-21T17:00:21;98739.88;;;22.33;58.00
25650;BME280;13505;45.196;5.696;2023-05-21T17:05:12;98745.25;;;22.33;57.56
25650;BME280;13505;45.196;5.696;2023-05-21T17:10:03;98745.81;;;22.19;57.78
25650;BME280;13505;45.196;5.696;2023-05-21T17:14:53;98741.47;;;21.99;59.23
25650;BME280;13505;45.196;5.696;2023-05-21T17:19:45;98757.28;;;21.84;59.74
25650;BME280;13505;45.196;5.696;2023-05-21T17:24:35;98753.59;;;21.67;59.65
25650;BME280;13505;45.196;5.696;2023-05-21T17:29:25;98765.50;;;21.83;59.62
25650;BME280;13505;45.196;5.696;2023-05-21T17:34:16;98762.59;;;21.66;60.48
25650;BME280;13505;45.196;5.696;2023-05-21T17:39:07;98769.03;;;21.55;60.73
25650;BME280;13505;45.196;5.696;2023-05-21T17:43:57;98769.47;;;21.51;60.44
25650;BME280;13505;45.196;5.696;2023-05-21T17:48:47;98779.78;;;21.27;61.17
25650;BME280;13505;45.196;5.696;2023-05-21T17:53:39;98772.78;;;21.16;61.91
25650;BME280;13505;45.196;5.696;2023-05-21T17:58:30;98776.91;;;21.11;61.92
